createdAt,value
2019-04-30T00:00:58.648Z,101020.36
2019-04-30T00:03:31.469Z,101025.97
2019-04-30T00:06:00.088Z,101023.78
2019-04-30T00:08:30.219Z,101019.15
2019-04-30T00:10:58.691Z,101019.51
2019-04-30T00:13:27.217Z,101014.02
2019-04-30T00:15:58.778Z,101017.77
2019-04-30T00:18:26.147Z,101011.46
2019-04-30T00:20:55.330Z,101022.09
2019-04-30T00:23:27.171Z,101014.43
2019-04-30T00:25:59.764Z,101011.86
2019-04-30T00:28:25.534Z,101014.78
2019-04-30T00:30:56.189Z,101016.42
2019-04-30T00:33:25.661Z,101023.16
2019-04-30T00:35:57.855Z,101018.04
2019-04-30T00:38:25.348Z,101029.41
2019-04-30T00:40:55.774Z,101020.97
2019-04-30T00:43:25.217Z,101022.22
2019-04-30T00:45:55.169Z,101021.80
2019-04-30T00:48:28.093Z,101024.30
2019-04-30T00:50:55.830Z,101018.30
2019-04-30T00:53:26.100Z,101017.88
2019-04-30T00:55:57.055Z,101016.52
2019-04-30T00:58:30.082Z,101014.80
2019-04-30T01:00:59.687Z,101005.72
2019-04-30T01:03:28.229Z,101015.48
2019-04-30T01:05:56.677Z,101004.47
2019-04-30T01:08:28.555Z,101003.56
2019-04-30T01:10:55.653Z,101007.77
2019-04-30T01:13:24.383Z,101000.95
2019-04-30T01:15:52.888Z,100991.14
2019-04-30T01:18:23.625Z,100999.93
2019-04-30T01:20:51.725Z,100998.84
2019-04-30T01:23:20.996Z,100997.13
2019-04-30T01:25:51.309Z,100997.10
2019-04-30T01:28:23.110Z,101001.72
2019-04-30T01:30:53.948Z,101004.23
2019-04-30T01:33:20.406Z,101004.66
2019-04-30T01:35:48.894Z,101003.24
2019-04-30T01:38:18.922Z,101001.07
2019-04-30T01:40:51.027Z,101002.73
2019-04-30T01:43:23.524Z,100999.59
2019-04-30T01:45:48.670Z,101001.34
2019-04-30T01:48:19.290Z,101000.08
2019-04-30T01:50:48.850Z,100995.24
2019-04-30T01:53:18.611Z,100993.94
2019-04-30T01:55:54.769Z,101005.22
2019-04-30T01:58:33.292Z,100998.75
2019-04-30T02:01:05.701Z,101001.88
2019-04-30T02:03:34.218Z,101003.14
2019-04-30T02:06:02.786Z,100998.01
2019-04-30T02:08:31.822Z,100993.33
2019-04-30T02:11:00.315Z,101003.34
2019-04-30T02:13:29.534Z,101000.20
2019-04-30T02:15:59.374Z,101002.81
2019-04-30T02:18:29.557Z,101004.86
2019-04-30T02:20:59.495Z,101006.97
2019-04-30T02:23:29.781Z,101003.52
2019-04-30T02:25:59.015Z,101004.79
2019-04-30T02:28:29.009Z,101001.34
2019-04-30T02:30:59.951Z,100997.92
2019-04-30T02:33:30.727Z,101001.58
2019-04-30T02:36:16.408Z,101005.77
2019-04-30T02:38:49.494Z,101003.73
2019-04-30T02:41:19.873Z,101002.78
2019-04-30T02:43:50.633Z,101003.89
2019-04-30T02:46:20.021Z,100998.33
2019-04-30T02:48:50.870Z,101000.55
2019-04-30T02:51:22.892Z,100998.83
2019-04-30T02:54:00.569Z,100999.17
2019-04-30T02:56:30.015Z,101005.81
2019-04-30T02:59:03.211Z,101000.70
2019-04-30T03:01:30.467Z,101000.29
2019-04-30T03:03:59.806Z,101003.67
2019-04-30T03:06:30.427Z,100995.19
2019-04-30T03:09:01.048Z,100993.88
2019-04-30T03:11:30.306Z,100996.95
2019-04-30T03:13:59.370Z,100994.69
2019-04-30T03:16:40.141Z,100992.53
2019-04-30T03:19:22.170Z,100995.88
2019-04-30T03:21:52.263Z,100997.21
2019-04-30T03:24:20.676Z,100993.72
2019-04-30T03:26:49.935Z,100994.88
2019-04-30T03:29:20.452Z,100998.33
2019-04-30T03:31:52.420Z,100992.34
2019-04-30T03:34:25.212Z,100994.53
2019-04-30T03:36:50.477Z,100995.45
2019-04-30T03:39:19.935Z,100988.66
2019-04-30T03:41:50.122Z,100995.25
2019-04-30T03:44:25.444Z,100996.14
2019-04-30T03:46:49.813Z,100989.34
2019-04-30T03:49:20.295Z,100991.84
2019-04-30T03:51:50.027Z,100987.37
2019-04-30T03:54:19.618Z,100988.80
2019-04-30T03:56:50.204Z,100987.62
2019-04-30T03:59:19.927Z,100988.44
2019-04-30T04:01:50.271Z,100989.90
2019-04-30T04:04:30.978Z,100988.17
2019-04-30T04:07:13.392Z,100981.50
2019-04-30T04:09:43.471Z,100983.37
2019-04-30T04:12:30.455Z,100984.72
2019-04-30T04:15:03.346Z,100988.89
2019-04-30T04:17:31.104Z,100993.45
2019-04-30T04:19:59.755Z,100994.38
2019-04-30T04:22:30.698Z,100988.09
2019-04-30T04:25:00.082Z,100988.14
2019-04-30T04:27:30.215Z,100989.06
2019-04-30T04:30:01.128Z,100992.09
2019-04-30T04:32:30.736Z,100995.86
2019-04-30T04:35:00.200Z,100993.78
2019-04-30T04:37:30.102Z,100987.95
2019-04-30T04:39:59.669Z,100993.56
2019-04-30T04:42:29.998Z,100996.98
2019-04-30T04:44:59.567Z,101004.23
2019-04-30T04:47:30.885Z,101008.12
2019-04-30T04:50:00.710Z,101005.20
2019-04-30T04:52:31.371Z,101010.30
2019-04-30T04:55:00.325Z,101005.23
2019-04-30T04:57:30.508Z,101006.97
2019-04-30T05:00:05.022Z,101005.47
2019-04-30T05:02:40.133Z,101005.62
2019-04-30T05:05:09.662Z,101008.23
2019-04-30T05:07:39.955Z,101004.92
2019-04-30T05:10:10.255Z,101001.27
2019-04-30T05:12:39.813Z,100998.77
2019-04-30T05:15:09.515Z,101001.80
2019-04-30T05:17:39.825Z,101006.13
2019-04-30T05:20:10.066Z,101003.63
2019-04-30T05:22:39.037Z,101007.49
2019-04-30T05:25:08.936Z,101013.05
2019-04-30T05:27:39.050Z,101013.61
2019-04-30T05:30:09.713Z,101005.19
2019-04-30T05:32:39.233Z,101007.38
2019-04-30T05:35:09.566Z,101011.62
2019-04-30T05:37:38.628Z,101013.42
2019-04-30T05:40:09.212Z,101015.17
2019-04-30T05:42:38.655Z,101014.78
2019-04-30T05:45:09.312Z,101019.07
2019-04-30T05:47:38.913Z,101021.28
2019-04-30T05:50:09.001Z,101021.43
2019-04-30T05:52:39.717Z,101019.46
2019-04-30T05:55:08.775Z,101022.09
2019-04-30T05:57:40.817Z,101026.04
2019-04-30T06:00:10.058Z,101023.13
2019-04-30T06:02:39.886Z,101021.72
2019-04-30T06:05:09.609Z,101020.36
2019-04-30T06:07:39.461Z,101023.33
2019-04-30T06:10:12.636Z,101030.45
2019-04-30T06:12:45.874Z,101025.84
2019-04-30T06:15:25.104Z,101027.73
2019-04-30T06:18:00.296Z,101026.42
2019-04-30T06:20:24.685Z,101031.02
2019-04-30T06:22:55.845Z,101032.95
2019-04-30T06:25:31.777Z,101036.42
2019-04-30T06:27:55.133Z,101044.63
2019-04-30T06:30:25.711Z,101047.33
2019-04-30T06:32:54.983Z,101050.37
2019-04-30T06:35:23.950Z,101049.99
2019-04-30T06:37:52.471Z,101050.37
2019-04-30T06:40:21.079Z,101054.38
2019-04-30T06:42:49.750Z,101054.73
2019-04-30T06:45:19.138Z,101061.23
2019-04-30T06:47:49.113Z,101053.81
2019-04-30T06:50:19.445Z,101062.28
2019-04-30T06:52:56.215Z,101064.08
2019-04-30T06:55:19.365Z,101061.98
2019-04-30T06:57:49.660Z,101066.03
2019-04-30T07:00:20.694Z,101065.93
2019-04-30T07:02:49.460Z,101068.02
2019-04-30T07:05:18.719Z,101056.72
2019-04-30T07:08:09.295Z,101053.70
2019-04-30T07:10:35.913Z,101050.67
2019-04-30T07:13:15.086Z,101059.44
2019-04-30T07:15:43.615Z,101060.80
2019-04-30T07:18:12.059Z,101057.31
2019-04-30T07:20:40.506Z,101052.78
2019-04-30T07:23:09.394Z,101051.66
2019-04-30T07:25:39.119Z,101053.38
2019-04-30T07:28:09.070Z,101050.69
2019-04-30T07:30:39.462Z,101049.23
2019-04-30T07:33:09.534Z,101046.33
2019-04-30T07:35:39.850Z,101057.66
2019-04-30T07:38:09.355Z,101052.79
2019-04-30T07:40:39.061Z,101054.97
2019-04-30T07:43:09.029Z,101052.69
2019-04-30T07:45:39.307Z,101051.98
2019-04-30T07:48:09.315Z,101053.53
2019-04-30T07:50:41.034Z,101050.60
2019-04-30T07:53:11.266Z,101047.72
2019-04-30T07:55:39.254Z,101047.86
2019-04-30T07:58:09.067Z,101048.56
2019-04-30T08:00:40.243Z,101048.08
2019-04-30T08:03:12.633Z,101050.77
2019-04-30T08:05:42.998Z,101047.94
2019-04-30T08:08:20.896Z,101051.16
2019-04-30T08:10:41.685Z,101048.61
2019-04-30T08:13:14.892Z,101049.17
2019-04-30T08:15:42.294Z,101047.03
2019-04-30T08:18:10.461Z,101049.25
2019-04-30T08:20:39.347Z,101042.17
2019-04-30T08:23:20.263Z,101042.98
2019-04-30T08:25:39.083Z,101045.05
2019-04-30T08:28:09.107Z,101036.52
2019-04-30T08:30:39.128Z,101037.13
2019-04-30T08:33:09.459Z,101038.91
2019-04-30T08:35:39.737Z,101033.52
2019-04-30T08:38:10.617Z,101033.59
2019-04-30T08:40:47.237Z,101039.81
2019-04-30T08:43:09.578Z,101039.50
2019-04-30T08:45:38.603Z,101044.95
2019-04-30T08:48:09.062Z,101044.59
2019-04-30T08:50:39.123Z,101045.92
2019-04-30T08:53:07.568Z,101038.48
2019-04-30T08:55:36.007Z,101037.54
2019-04-30T08:58:09.829Z,101040.42
2019-04-30T09:00:35.179Z,101040.58
2019-04-30T09:03:03.837Z,101042.39
2019-04-30T09:05:33.991Z,101043.23
2019-04-30T09:08:02.639Z,101045.59
2019-04-30T09:10:31.164Z,101040.67
2019-04-30T09:12:59.913Z,101048.34
2019-04-30T09:15:29.135Z,101044.28
2019-04-30T09:18:03.359Z,101039.73
2019-04-30T09:20:29.128Z,101041.14
2019-04-30T09:22:59.525Z,101040.34
2019-04-30T09:25:28.664Z,101038.66
2019-04-30T09:27:58.840Z,101039.75
2019-04-30T09:30:27.348Z,101037.56
2019-04-30T09:32:55.789Z,101038.91
2019-04-30T09:35:24.253Z,101040.92
2019-04-30T09:37:59.010Z,101040.22
2019-04-30T09:40:22.836Z,101040.83
2019-04-30T09:42:51.287Z,101038.94
2019-04-30T09:45:19.797Z,101035.09
2019-04-30T09:47:50.378Z,101027.48
2019-04-30T09:50:18.935Z,101026.99
2019-04-30T09:52:49.518Z,101023.10
2019-04-30T09:55:19.255Z,101028.03
2019-04-30T09:57:48.835Z,101021.01
2019-04-30T10:00:19.381Z,101022.38
2019-04-30T10:02:48.870Z,101016.47
2019-04-30T10:05:19.736Z,101010.53
2019-04-30T10:07:49.353Z,101012.51
2019-04-30T10:10:20.449Z,101004.31
2019-04-30T10:12:49.329Z,101011.17
2019-04-30T10:15:28.935Z,101000.23
2019-04-30T10:17:58.054Z,101006.81
2019-04-30T10:20:43.831Z,101009.72
2019-04-30T10:23:12.357Z,101000.70
2019-04-30T10:25:40.953Z,100997.62
2019-04-30T10:28:10.126Z,100996.20
2019-04-30T10:30:39.153Z,100998.27
2019-04-30T10:33:10.036Z,100990.09
2019-04-30T10:35:38.612Z,100979.75
2019-04-30T10:38:07.170Z,100978.33
2019-04-30T10:40:35.668Z,100979.53
2019-04-30T10:43:04.251Z,100968.06
2019-04-30T10:45:32.758Z,100972.73
2019-04-30T10:48:01.372Z,100969.48
2019-04-30T10:50:29.791Z,100967.42
2019-04-30T10:52:59.121Z,100966.80
2019-04-30T10:55:28.715Z,100965.67
2019-04-30T10:57:59.357Z,100964.44
2019-04-30T11:00:42.116Z,100962.00
2019-04-30T11:03:19.941Z,100963.63
2019-04-30T11:05:41.646Z,100957.33
2019-04-30T11:08:10.265Z,100958.10
2019-04-30T11:10:39.894Z,100954.83
2019-04-30T11:13:08.762Z,100949.94
2019-04-30T11:15:39.305Z,100950.74
2019-04-30T11:18:07.796Z,100948.52
2019-04-30T11:20:36.577Z,100943.95
2019-04-30T11:23:14.089Z,100944.75
2019-04-30T11:25:37.117Z,100944.47
2019-04-30T11:28:09.932Z,100941.61
2019-04-30T11:30:39.968Z,100934.14
2019-04-30T11:33:08.912Z,100937.32
2019-04-30T11:35:39.364Z,100932.54
2019-04-30T11:38:07.929Z,100926.59
2019-04-30T11:40:39.298Z,100924.81
2019-04-30T11:43:06.634Z,100927.52
2019-04-30T11:45:53.271Z,100922.80
2019-04-30T11:48:21.691Z,100921.55
2019-04-30T11:50:50.122Z,100915.59
2019-04-30T11:53:25.513Z,100914.76
2019-04-30T11:55:49.275Z,100913.44
2019-04-30T11:58:21.709Z,100908.16
2019-04-30T12:00:49.509Z,100908.72
2019-04-30T12:03:19.126Z,100900.63
2019-04-30T12:05:49.133Z,100908.65
2019-04-30T12:08:19.593Z,100905.58
2019-04-30T12:10:52.084Z,100905.49
2019-04-30T12:13:24.718Z,100899.66
2019-04-30T12:15:54.005Z,100899.48
2019-04-30T12:18:22.569Z,100897.24
2019-04-30T12:20:51.095Z,100900.92
2019-04-30T12:23:19.545Z,100893.31
2019-04-30T12:25:49.304Z,100890.63
2019-04-30T12:28:19.560Z,100883.31
2019-04-30T12:30:48.967Z,100883.19
2019-04-30T12:33:19.170Z,100886.62
2019-04-30T12:35:51.037Z,100879.56
2019-04-30T12:38:19.168Z,100883.57
2019-04-30T12:40:48.037Z,100873.11
2019-04-30T12:43:16.539Z,100877.17
2019-04-30T12:45:45.019Z,100872.89
2019-04-30T12:48:15.216Z,100867.73
2019-04-30T12:50:49.150Z,100863.58
2019-04-30T12:53:31.532Z,100864.03
2019-04-30T12:56:01.596Z,100861.83
2019-04-30T12:58:30.046Z,100863.17
2019-04-30T13:00:59.163Z,100861.52
2019-04-30T13:03:28.402Z,100850.44
2019-04-30T13:06:00.651Z,100854.77
2019-04-30T13:08:28.706Z,100850.00
2019-04-30T13:10:58.064Z,100853.94
2019-04-30T13:13:31.486Z,100841.27
2019-04-30T13:15:59.864Z,100832.91
2019-04-30T13:18:29.480Z,100837.66
2019-04-30T13:20:58.835Z,100836.71
2019-04-30T13:23:29.686Z,100835.08
2019-04-30T13:25:58.506Z,100824.96
2019-04-30T13:28:29.683Z,100823.06
2019-04-30T13:30:59.300Z,100820.34
2019-04-30T13:33:32.667Z,100824.49
2019-04-30T13:36:01.119Z,100825.92
2019-04-30T13:38:31.244Z,100823.01
2019-04-30T13:41:04.379Z,100813.84
2019-04-30T13:43:50.523Z,100808.20
2019-04-30T13:46:18.982Z,100816.89
2019-04-30T13:48:47.413Z,100809.55
2019-04-30T13:51:15.844Z,100811.66
2019-04-30T13:53:44.326Z,100806.88
2019-04-30T13:56:12.749Z,100800.23
2019-04-30T13:58:44.475Z,100800.70
2019-04-30T14:01:13.011Z,100803.00
2019-04-30T14:04:01.175Z,100793.54
2019-04-30T14:06:31.268Z,100788.78
2019-04-30T14:09:16.083Z,100783.23
2019-04-30T14:11:44.562Z,100795.63
2019-04-30T14:14:13.147Z,100784.33
2019-04-30T14:16:43.871Z,100787.29
2019-04-30T14:19:12.105Z,100787.29
2019-04-30T14:21:40.538Z,100778.92
2019-04-30T14:24:09.521Z,100774.26
2019-04-30T14:26:39.148Z,100779.67
2019-04-30T14:29:08.557Z,100771.30
2019-04-30T14:31:38.798Z,100771.44
2019-04-30T14:34:07.375Z,100766.14
2019-04-30T14:36:35.825Z,100770.27
2019-04-30T14:39:14.461Z,100773.14
2019-04-30T14:41:39.972Z,100770.89
2019-04-30T14:44:18.512Z,100767.54
2019-04-30T14:46:52.050Z,100766.83
2019-04-30T14:49:42.099Z,100758.77
2019-04-30T14:52:11.703Z,100763.66
2019-04-30T14:54:56.481Z,100763.66
2019-04-30T14:57:29.441Z,100763.92
2019-04-30T15:00:01.965Z,100760.18
2019-04-30T15:02:35.061Z,100759.72
2019-04-30T15:05:08.965Z,100757.52
2019-04-30T15:07:39.550Z,100764.20
2019-04-30T15:10:11.776Z,100752.55
2019-04-30T15:12:40.320Z,100756.59
2019-04-30T15:15:09.263Z,100753.78
2019-04-30T15:17:39.242Z,100751.72
2019-04-30T15:20:08.968Z,100740.12
2019-04-30T15:22:39.131Z,100736.74
2019-04-30T15:25:07.875Z,100737.00
2019-04-30T15:27:36.328Z,100734.68
2019-04-30T15:30:07.904Z,100737.41
2019-04-30T15:32:39.561Z,100737.40
2019-04-30T15:35:08.949Z,100730.94
2019-04-30T15:37:39.156Z,100728.98
2019-04-30T15:40:09.146Z,100727.69
2019-04-30T15:42:39.500Z,100721.22
2019-04-30T15:45:09.299Z,100723.90
2019-04-30T15:47:38.741Z,100719.88
2019-04-30T15:50:09.745Z,100721.11
2019-04-30T15:52:38.780Z,100719.81
2019-04-30T15:55:09.202Z,100725.31
2019-04-30T15:57:39.420Z,100723.03
2019-04-30T16:00:08.618Z,100720.17
2019-04-30T16:02:40.428Z,100717.01
2019-04-30T16:05:14.149Z,100712.36
2019-04-30T16:07:56.516Z,100707.84
2019-04-30T16:10:35.932Z,100714.21
2019-04-30T16:13:06.479Z,100707.38
2019-04-30T16:15:35.002Z,100699.67
2019-04-30T16:18:04.760Z,100701.16
2019-04-30T16:20:33.243Z,100707.13
2019-04-30T16:23:01.736Z,100699.30
2019-04-30T16:25:31.130Z,100703.87
2019-04-30T16:27:59.641Z,100702.98
2019-04-30T16:30:28.925Z,100702.63
2019-04-30T16:32:59.503Z,100700.33
2019-04-30T16:35:29.548Z,100699.72
2019-04-30T16:37:59.366Z,100693.50
2019-04-30T16:40:29.061Z,100690.94
2019-04-30T16:42:57.690Z,100686.28
2019-04-30T16:45:26.188Z,100684.13
2019-04-30T16:47:54.972Z,100681.35
2019-04-30T16:50:23.703Z,100679.91
2019-04-30T16:52:52.281Z,100675.77
2019-04-30T16:55:20.967Z,100676.94
2019-04-30T16:57:50.266Z,100677.33
2019-04-30T17:00:20.199Z,100678.55
2019-04-30T17:02:50.780Z,100671.86
2019-04-30T17:05:24.190Z,100669.65
2019-04-30T17:08:03.369Z,100666.83
2019-04-30T17:10:39.607Z,100673.16
2019-04-30T17:13:22.225Z,100666.93
2019-04-30T17:15:58.106Z,100671.59
2019-04-30T17:18:26.863Z,100671.73
2019-04-30T17:20:55.482Z,100666.84
2019-04-30T17:23:23.972Z,100664.72
2019-04-30T17:25:52.435Z,100667.14
2019-04-30T17:28:21.029Z,100668.70
2019-04-30T17:30:49.519Z,100670.67
2019-04-30T17:33:18.162Z,100669.43
2019-04-30T17:35:46.768Z,100665.61
2019-04-30T17:38:15.406Z,100669.38
2019-04-30T17:40:43.929Z,100669.94
2019-04-30T17:43:12.672Z,100664.72
2019-04-30T17:45:41.231Z,100669.48
2019-04-30T17:48:09.832Z,100666.25
2019-04-30T17:50:39.631Z,100666.77
2019-04-30T17:53:09.056Z,100662.81
2019-04-30T17:55:39.160Z,100667.09
2019-04-30T17:58:09.789Z,100666.31
2019-04-30T18:00:40.482Z,100667.94
2019-04-30T18:03:10.906Z,100670.25
2019-04-30T18:05:39.189Z,100668.70
2019-04-30T18:08:08.424Z,100674.11
2019-04-30T18:10:37.093Z,100670.96
2019-04-30T18:13:06.038Z,100665.78
2019-04-30T18:15:34.569Z,100676.53
2019-04-30T18:18:04.768Z,100676.34
2019-04-30T18:20:34.956Z,100676.34
2019-04-30T18:23:21.287Z,100684.95
2019-04-30T18:25:51.396Z,100680.34
2019-04-30T18:28:19.906Z,100679.45
2019-04-30T18:30:49.093Z,100684.16
2019-04-30T18:33:18.119Z,100689.00
2019-04-30T18:35:48.545Z,100689.83
2019-04-30T18:38:19.977Z,100688.09
2019-04-30T18:40:50.225Z,100696.84
2019-04-30T18:43:20.550Z,100683.27
2019-04-30T18:45:49.511Z,100693.69
2019-04-30T18:48:19.496Z,100694.77
2019-04-30T18:50:48.222Z,100699.06
2019-04-30T18:53:18.995Z,100698.64
2019-04-30T18:55:50.503Z,100696.98
2019-04-30T18:58:19.977Z,100698.77
2019-04-30T19:00:49.437Z,100695.60
2019-04-30T19:03:21.620Z,100698.09
2019-04-30T19:05:49.977Z,100696.44
2019-04-30T19:08:26.368Z,100701.02
2019-04-30T19:10:56.504Z,100701.44
2019-04-30T19:13:35.266Z,100707.55
2019-04-30T19:16:22.125Z,100706.42
2019-04-30T19:18:40.132Z,100704.83
2019-04-30T19:21:09.866Z,100710.00
2019-04-30T19:23:39.074Z,100717.73
2019-04-30T19:26:07.665Z,100718.73
2019-04-30T19:28:36.115Z,100717.75
2019-04-30T19:31:04.820Z,100716.95
2019-04-30T19:33:33.324Z,100718.44
2019-04-30T19:36:01.850Z,100721.32
2019-04-30T19:38:30.751Z,100717.30
2019-04-30T19:40:59.274Z,100720.80
2019-04-30T19:43:28.682Z,100729.39
2019-04-30T19:45:59.169Z,100721.69
2019-04-30T19:48:27.491Z,100726.84
2019-04-30T19:50:59.601Z,100726.72
2019-04-30T19:53:28.047Z,100727.63
2019-04-30T19:55:56.569Z,100724.81
2019-04-30T19:58:33.380Z,100727.08
2019-04-30T20:00:55.362Z,100723.80
2019-04-30T20:03:24.035Z,100730.81
2019-04-30T20:05:52.760Z,100725.73
2019-04-30T20:08:21.271Z,100730.59
2019-04-30T20:10:49.769Z,100729.90
2019-04-30T20:13:30.871Z,100737.97
2019-04-30T20:15:49.389Z,100735.45
2019-04-30T20:18:19.059Z,100735.95
2019-04-30T20:20:51.905Z,100737.30
2019-04-30T20:23:20.321Z,100737.47
2019-04-30T20:25:49.115Z,100731.19
2019-04-30T20:28:17.564Z,100732.25
2019-04-30T20:30:46.189Z,100740.08
2019-04-30T20:33:14.909Z,100736.27
2019-04-30T20:35:43.424Z,100730.91
2019-04-30T20:38:19.755Z,100734.14
2019-04-30T20:40:59.523Z,100732.37
2019-04-30T20:43:20.129Z,100737.74
2019-04-30T20:45:48.816Z,100733.46
2019-04-30T20:48:18.801Z,100732.11
2019-04-30T20:50:47.625Z,100736.33
2019-04-30T20:53:16.233Z,100732.02
2019-04-30T20:55:44.739Z,100732.44
2019-04-30T20:58:13.205Z,100735.87
2019-04-30T21:00:41.643Z,100734.20
2019-04-30T21:03:10.173Z,100735.85
2019-04-30T21:05:38.722Z,100734.08
2019-04-30T21:08:07.373Z,100730.70
2019-04-30T21:10:36.109Z,100731.16
2019-04-30T21:13:04.719Z,100730.25
2019-04-30T21:15:33.308Z,100731.92
2019-04-30T21:18:01.825Z,100729.45
2019-04-30T21:20:31.254Z,100733.82
2019-04-30T21:22:59.791Z,100733.91
2019-04-30T21:25:29.220Z,100728.73
2019-04-30T21:28:00.023Z,100730.41
2019-04-30T21:30:28.059Z,100729.57
2019-04-30T21:33:02.023Z,100729.13
2019-04-30T21:35:43.967Z,100733.44
2019-04-30T21:38:12.432Z,100733.94
2019-04-30T21:40:40.880Z,100733.08
2019-04-30T21:43:09.647Z,100727.28
2019-04-30T21:45:39.833Z,100720.91
2019-04-30T21:48:09.200Z,100724.98
2019-04-30T21:50:39.732Z,100721.03
2019-04-30T21:53:09.965Z,100727.52
2019-04-30T21:55:39.802Z,100725.45
2019-04-30T21:58:09.609Z,100729.31
2019-04-30T22:00:43.211Z,100723.72
2019-04-30T22:03:11.916Z,100720.12
2019-04-30T22:05:40.535Z,100724.11
2019-04-30T22:08:09.262Z,100720.34
2019-04-30T22:10:37.776Z,100724.49
2019-04-30T22:13:06.253Z,100719.35
2019-04-30T22:15:36.592Z,100721.92
2019-04-30T22:18:05.555Z,100723.38
2019-04-30T22:20:34.091Z,100718.27
2019-04-30T22:23:02.544Z,100717.34
2019-04-30T22:25:33.406Z,100718.63
2019-04-30T22:28:01.850Z,100724.70
2019-04-30T22:30:30.288Z,100724.05
2019-04-30T22:32:59.589Z,100721.91
2019-04-30T22:35:29.796Z,100724.34
2019-04-30T22:38:06.008Z,100716.06
2019-04-30T22:40:34.596Z,100706.73
2019-04-30T22:43:03.241Z,100709.13
2019-04-30T22:45:49.882Z,100705.35
2019-04-30T22:48:18.770Z,100707.81
2019-04-30T22:50:47.628Z,100709.23
2019-04-30T22:53:16.166Z,100708.27
2019-04-30T22:55:44.830Z,100699.40
2019-04-30T22:58:14.914Z,100706.21
2019-04-30T23:00:45.156Z,100710.83
2019-04-30T23:03:15.339Z,100716.67
2019-04-30T23:05:44.202Z,100702.49
2019-04-30T23:08:12.739Z,100704.82
2019-04-30T23:10:41.742Z,100703.72
2019-04-30T23:13:10.284Z,100701.67
2019-04-30T23:15:39.198Z,100706.29
2019-04-30T23:18:07.784Z,100700.04
2019-04-30T23:20:36.302Z,100699.23
2019-04-30T23:23:04.978Z,100698.37
2019-04-30T23:25:33.484Z,100697.43
2019-04-30T23:28:02.087Z,100698.34
2019-04-30T23:30:30.637Z,100700.12
2019-04-30T23:32:59.176Z,100695.11
2019-04-30T23:35:27.636Z,100696.86
2019-04-30T23:37:56.115Z,100690.17
2019-04-30T23:40:30.594Z,100688.21
2019-04-30T23:42:59.142Z,100691.03
2019-04-30T23:45:27.770Z,100692.86
2019-04-30T23:47:56.388Z,100688.98
2019-04-30T23:50:24.892Z,100688.98
2019-04-30T23:52:54.136Z,100680.22
2019-04-30T23:55:22.898Z,100685.88
2019-04-30T23:57:51.582Z,100684.20
